createdAt,value
2018-09-09T08:16:56.866Z,16.81
2018-09-09T08:19:30.098Z,16.93
2018-09-09T08:22:00.744Z,16.99
2018-09-09T08:24:30.912Z,17.05
2018-09-09T08:27:00.539Z,17.19
2018-09-09T08:29:29.735Z,17.28
2018-09-09T08:31:58.972Z,17.32
2018-09-09T08:34:28.158Z,17.38
2018-09-09T08:36:57.307Z,17.45
2018-09-09T08:39:26.466Z,17.55
2018-09-09T08:41:55.665Z,17.69
2018-09-09T08:44:24.869Z,17.78
2018-09-09T08:46:54.045Z,17.86
2018-09-09T08:49:23.251Z,17.98
2018-09-09T08:51:52.494Z,18.16
2018-09-09T08:54:21.602Z,18.30
2018-09-09T08:56:51.759Z,18.49
2018-09-09T08:59:20.957Z,18.61
2018-09-09T09:01:50.165Z,18.76
2018-09-09T09:04:19.329Z,18.92
2018-09-09T09:06:48.536Z,19.06
2018-09-09T09:09:17.721Z,19.09
2018-09-09T09:11:46.898Z,19.13
2018-09-09T09:14:16.047Z,19.14
2018-09-09T09:16:45.247Z,19.21
2018-09-09T09:19:14.417Z,19.32
2018-09-09T09:21:43.663Z,19.40
2018-09-09T09:24:12.900Z,19.50
2018-09-09T09:26:42.037Z,19.59
2018-09-09T09:29:11.167Z,19.66
2018-09-09T09:31:40.353Z,19.76
2018-09-09T09:34:09.548Z,19.81
2018-09-09T09:36:38.713Z,19.87
2018-09-09T09:39:08.211Z,19.91
2018-09-09T09:41:37.363Z,20.00
2018-09-09T09:44:06.542Z,20.08
2018-09-09T09:46:35.681Z,20.14
2018-09-09T09:49:04.875Z,20.23
2018-09-09T09:51:34.096Z,20.28
2018-09-09T09:54:03.270Z,20.34
2018-09-09T09:56:32.920Z,20.43
2018-09-09T09:59:03.042Z,20.55
2018-09-09T10:01:33.507Z,20.66
2018-09-09T10:04:03.548Z,20.75
2018-09-09T10:06:33.012Z,20.73
2018-09-09T10:09:03.264Z,20.73
2018-09-09T10:11:33.178Z,20.77
2018-09-09T10:14:03.126Z,20.78
2018-09-09T10:16:33.142Z,20.82
2018-09-09T10:19:03.042Z,20.88
2018-09-09T10:21:33.117Z,20.92
2018-09-09T10:24:03.243Z,20.99
2018-09-09T10:26:33.277Z,21.08
2018-09-09T10:29:03.244Z,21.20
2018-09-09T10:31:33.307Z,21.18
2018-09-09T10:34:03.394Z,21.31
2018-09-09T10:36:33.374Z,21.39
2018-09-09T10:39:03.530Z,21.48
2018-09-09T10:41:33.501Z,21.66
2018-09-09T10:44:03.589Z,21.80
2018-09-09T10:46:33.634Z,21.89
2018-09-09T10:49:03.651Z,21.93
2018-09-09T10:51:33.630Z,21.97
2018-09-09T10:54:03.619Z,21.97
2018-09-09T10:56:33.699Z,22.02
2018-09-09T10:59:11.130Z,22.14
2018-09-09T11:01:56.115Z,22.20
2018-09-09T11:04:32.348Z,22.26
2018-09-09T11:07:09.986Z,22.37
2018-09-09T11:12:13.854Z,22.59
2018-09-09T11:14:49.365Z,22.84
2018-09-09T11:17:23.872Z,22.93
2018-09-09T11:19:55.071Z,22.89
2018-09-09T11:22:37.751Z,22.87
2018-09-09T11:25:11.477Z,22.90
2018-09-09T11:27:47.859Z,22.85
2018-09-09T11:30:18.370Z,22.84
2018-09-09T12:52:55.718Z,23.25
2018-09-09T12:55:25.052Z,23.26
2018-09-09T12:57:54.652Z,23.29
2018-09-09T13:00:24.084Z,23.36
2018-09-09T13:02:53.626Z,23.39
2018-09-09T13:05:29.695Z,23.47
2018-09-09T13:08:10.590Z,23.53
2018-09-09T13:10:47.346Z,23.59
2018-09-09T13:16:05.392Z,23.98
2018-09-09T13:18:41.377Z,24.13
2018-09-09T13:21:11.264Z,24.23
2018-09-09T13:23:44.189Z,24.31
2018-09-09T13:26:24.144Z,24.30
2018-09-09T13:28:54.104Z,24.28
2018-09-09T13:31:26.544Z,24.26
2018-09-09T13:33:59.407Z,24.19
2018-09-09T13:36:36.928Z,24.05
2018-09-09T13:39:23.648Z,23.92
2018-09-09T13:42:02.584Z,24.01
2018-09-09T13:44:37.164Z,24.21
2018-09-09T13:47:11.086Z,24.42
2018-09-09T13:49:47.063Z,24.52
2018-09-09T13:52:22.958Z,24.48
2018-09-09T13:55:15.657Z,24.51
2018-09-09T13:57:59.437Z,24.57
2018-09-09T14:00:33.527Z,24.52
2018-09-09T14:03:08.674Z,24.45
2018-09-09T14:05:48.061Z,24.37
2018-09-09T14:08:19.930Z,24.51
2018-09-09T14:10:55.630Z,24.58
2018-09-09T14:13:36.669Z,24.65
2018-09-09T14:16:07.189Z,24.77
2018-09-09T14:18:36.776Z,24.91
2018-09-09T14:26:17.271Z,25.08
2018-09-09T14:28:50.641Z,25.31
2018-09-09T14:31:21.558Z,25.37
2018-09-09T14:33:51.079Z,25.68
2018-09-09T14:36:20.484Z,26.10
2018-09-09T14:38:52.010Z,26.37
2018-09-09T14:41:21.291Z,26.78
2018-09-09T14:43:54.243Z,27.12
2018-09-09T14:46:23.487Z,27.50
2018-09-09T14:48:53.287Z,27.71
2018-09-09T14:51:22.666Z,27.79
2018-09-09T14:53:54.615Z,27.75
2018-09-09T14:56:27.835Z,27.81
2018-09-09T14:58:56.954Z,28.02
2018-09-09T15:01:28.864Z,28.23
2018-09-09T15:03:58.438Z,28.39
2018-09-09T15:06:27.600Z,28.45
2018-09-09T15:08:56.765Z,28.56
2018-09-09T15:11:25.907Z,28.48
2018-09-09T15:13:55.090Z,28.44
2018-09-09T15:16:38.949Z,28.50
2018-09-09T15:19:08.457Z,28.18
2018-09-09T15:21:38.755Z,27.91
2018-09-09T15:24:08.491Z,27.88
2018-09-09T15:26:37.824Z,28.14
2018-09-09T15:29:07.419Z,28.32
2018-09-09T15:31:37.898Z,28.36
2018-09-09T15:34:07.723Z,27.97
2018-09-09T15:36:37.888Z,27.49
2018-09-09T15:39:09.088Z,27.09
2018-09-09T15:41:38.639Z,26.75
2018-09-09T15:44:09.004Z,26.47
2018-09-09T15:46:38.791Z,26.22
2018-09-09T15:49:08.279Z,25.99
2018-09-09T15:51:38.259Z,25.81
2018-09-09T15:54:08.170Z,25.52
2018-09-09T15:56:41.950Z,25.45
2018-09-09T15:59:16.838Z,25.43
2018-09-09T16:01:46.365Z,25.37
2018-09-09T16:04:16.166Z,25.19
2018-09-09T16:06:45.297Z,24.94
2018-09-09T16:09:14.443Z,24.76
2018-09-09T16:11:43.579Z,24.56
2018-09-09T16:14:12.681Z,24.43
2018-09-09T16:16:42.169Z,24.33
2018-09-09T16:19:13.318Z,24.23
2018-09-09T16:21:44.785Z,24.10
2018-09-09T16:24:15.666Z,24.00
2018-09-09T16:26:44.753Z,23.94
2018-09-09T16:29:15.203Z,23.86
2018-09-09T16:31:44.674Z,23.77
2018-09-09T16:34:14.949Z,23.73
2018-09-09T16:36:45.277Z,23.69
2018-09-09T16:39:14.865Z,23.58
2018-09-09T16:41:44.492Z,23.57
2018-09-09T16:44:14.840Z,23.52
2018-09-09T16:46:45.676Z,23.43
2018-09-09T16:49:16.500Z,23.37
2018-09-09T16:51:45.657Z,23.28
2018-09-09T16:54:14.775Z,23.17
2018-09-09T16:56:44.279Z,23.06
2018-09-09T16:59:13.990Z,22.95
2018-09-09T17:01:43.760Z,22.89
2018-09-09T17:04:12.879Z,22.80
2018-09-09T17:06:42.109Z,22.76
2018-09-09T17:09:12.114Z,22.64
2018-09-09T17:11:41.692Z,22.50
2018-09-09T17:14:10.869Z,22.41
2018-09-09T17:16:39.946Z,22.28
2018-09-09T17:19:15.298Z,22.20
2018-09-09T17:21:44.403Z,22.13
2018-09-09T17:24:44.536Z,22.06
2018-09-09T17:27:13.703Z,21.94
2018-09-09T17:29:44.292Z,21.86
2018-09-09T17:32:13.399Z,21.75
2018-09-09T17:34:42.541Z,21.66
2018-09-09T17:37:11.745Z,21.58
2018-09-09T17:39:40.836Z,21.49
2018-09-09T17:42:09.996Z,21.40
2018-09-09T17:44:39.114Z,21.34
2018-09-09T17:47:08.302Z,21.25
2018-09-09T17:49:38.205Z,21.17
2018-09-09T17:52:08.591Z,21.07
2018-09-09T17:54:38.341Z,20.96
2018-09-09T17:57:09.054Z,20.85
2018-09-09T17:59:38.445Z,20.75
2018-09-09T18:02:08.268Z,20.67
2018-09-09T18:04:38.304Z,20.59
2018-09-09T18:07:08.477Z,20.50
2018-09-09T18:09:38.531Z,20.43
2018-09-09T18:12:08.333Z,20.32
2018-09-09T18:14:38.691Z,20.26
2018-09-09T18:17:08.782Z,20.21
2018-09-09T18:19:38.548Z,20.09
2018-09-09T18:22:08.641Z,20.06
2018-09-09T18:24:38.752Z,19.99
2018-09-09T18:27:08.551Z,19.92
2018-09-09T18:29:38.803Z,19.82
2018-09-09T18:32:08.635Z,19.76
2018-09-09T18:34:39.991Z,19.70
2018-09-09T18:37:09.205Z,19.63
2018-09-09T18:39:39.064Z,19.54
2018-09-09T18:42:09.223Z,19.48
2018-09-09T18:44:39.172Z,19.39
2018-09-09T18:47:09.072Z,19.33
2018-09-09T18:49:39.507Z,19.23
2018-09-09T18:52:09.151Z,19.14
2018-09-09T18:54:39.162Z,19.04
2018-09-09T18:57:09.268Z,18.98
2018-09-09T18:59:39.214Z,18.91
2018-09-09T19:02:10.155Z,18.86
2018-09-09T19:04:39.766Z,18.79
2018-09-09T19:07:09.343Z,18.72
2018-09-09T19:09:39.012Z,18.64
2018-09-09T19:12:09.969Z,18.57
2018-09-09T19:14:39.438Z,18.49
2018-09-09T19:17:09.294Z,18.41
2018-09-09T19:19:39.366Z,18.34
2018-09-09T19:22:09.174Z,18.28
2018-09-09T19:24:39.555Z,18.22
2018-09-09T19:27:10.311Z,18.18
2018-09-09T19:29:40.536Z,18.12
2018-09-09T19:32:10.775Z,18.06
2018-09-09T19:34:40.366Z,18.01
2018-09-09T19:37:09.839Z,17.96
2018-09-09T19:39:39.334Z,17.90
2018-09-09T19:42:08.898Z,17.87
2018-09-09T19:44:39.305Z,17.84
2018-09-09T19:47:08.767Z,17.79
2018-09-09T19:49:38.364Z,17.69
2018-09-09T19:52:08.878Z,17.68
2018-09-09T19:54:38.455Z,17.62
2018-09-09T19:57:07.935Z,17.55
2018-09-09T19:59:37.398Z,17.51
2018-09-09T20:02:06.897Z,17.45
2018-09-09T20:04:36.514Z,17.40
2018-09-09T20:07:06.664Z,17.37
2018-09-09T20:09:36.191Z,17.31
2018-09-09T20:12:06.216Z,17.24
2018-09-09T20:14:35.918Z,17.16
2018-09-09T20:17:05.599Z,17.11
2018-09-09T20:19:34.994Z,17.08
2018-09-09T20:22:04.404Z,17.08
2018-09-09T20:24:33.655Z,17.03
2018-09-09T20:27:02.966Z,16.99
2018-09-09T20:29:32.275Z,16.93
2018-09-09T20:32:01.834Z,16.89
2018-09-09T20:34:31.651Z,16.86
2018-09-09T20:37:01.754Z,16.82
2018-09-09T20:39:31.730Z,16.77
2018-09-09T20:42:01.734Z,16.74
2018-09-09T20:44:31.626Z,16.71
2018-09-09T20:47:01.733Z,16.68
2018-09-09T20:49:31.744Z,16.62
2018-09-09T20:52:01.709Z,16.56
2018-09-09T20:54:31.690Z,16.50
2018-09-09T20:57:01.867Z,16.43
2018-09-09T20:59:31.944Z,16.40
2018-09-09T21:02:01.800Z,16.38
2018-09-09T21:04:31.915Z,16.35
2018-09-09T21:07:01.839Z,16.33
2018-09-09T21:09:31.986Z,16.26
2018-09-09T21:12:02.068Z,16.26
2018-09-09T21:14:31.986Z,16.21
2018-09-09T21:17:02.026Z,16.17
2018-09-09T21:19:31.982Z,16.13
2018-09-09T21:22:02.141Z,16.13
2018-09-09T21:24:31.227Z,16.11
2018-09-09T21:27:00.374Z,16.09
2018-09-09T21:29:29.466Z,16.08
2018-09-09T21:31:58.636Z,16.09
2018-09-09T21:34:27.770Z,16.08
2018-09-09T21:36:56.939Z,16.07
2018-09-09T21:39:26.012Z,16.05
2018-09-09T21:41:55.115Z,16.03
2018-09-09T21:44:24.200Z,16.01
2018-09-09T21:46:53.413Z,15.99
2018-09-09T21:49:22.584Z,15.97
2018-09-09T21:51:51.742Z,15.93
2018-09-09T21:54:20.860Z,15.89
2018-09-09T21:56:49.978Z,15.81
2018-09-09T21:59:19.149Z,15.75
2018-09-09T22:01:53.365Z,15.71
2018-09-09T22:04:22.478Z,15.64
2018-09-09T22:06:51.675Z,15.57
2018-09-09T22:09:20.870Z,15.50
2018-09-09T22:11:50.022Z,15.48
2018-09-09T22:14:19.104Z,15.44
2018-09-09T22:16:48.232Z,15.41
2018-09-09T22:19:17.422Z,15.40
2018-09-09T22:21:48.563Z,15.34
2018-09-09T22:24:18.786Z,15.32
2018-09-09T22:26:47.986Z,15.29
2018-09-09T22:29:17.221Z,15.24
2018-09-09T22:31:46.283Z,15.23
2018-09-09T22:34:15.566Z,15.22
2018-09-09T22:36:44.707Z,15.19
2018-09-09T22:39:14.157Z,15.16
2018-09-09T22:41:43.276Z,15.13
2018-09-09T22:44:13.228Z,15.09
2018-09-09T22:46:43.142Z,15.05
2018-09-09T22:49:12.270Z,15.04
2018-09-09T22:51:41.413Z,15.06
2018-09-09T22:54:10.543Z,15.05
2018-09-09T22:56:39.684Z,15.02
2018-09-09T22:59:08.904Z,14.98
2018-09-09T23:01:38.030Z,14.93
2018-09-09T23:04:07.170Z,14.88
2018-09-09T23:06:36.235Z,14.86
2018-09-09T23:09:08.174Z,14.82
2018-09-09T23:11:37.404Z,14.79
2018-09-09T23:14:06.514Z,14.77
2018-09-09T23:16:35.655Z,14.75
2018-09-09T23:19:04.822Z,14.70
2018-09-09T23:21:33.945Z,14.64
2018-09-09T23:24:03.873Z,14.60
2018-09-09T23:26:33.438Z,14.58
2018-09-09T23:29:02.528Z,14.52
2018-09-09T23:31:31.584Z,14.43
2018-09-09T23:34:00.658Z,14.41
2018-09-09T23:36:29.736Z,14.37
2018-09-09T23:38:58.772Z,14.35
2018-09-09T23:41:27.835Z,14.35
2018-09-09T23:43:57.374Z,14.30
2018-09-09T23:46:26.507Z,14.27
2018-09-09T23:48:55.636Z,14.24
2018-09-09T23:51:24.708Z,14.12
2018-09-09T23:53:53.780Z,14.02
2018-09-09T23:56:22.995Z,14.08
2018-09-09T23:58:52.114Z,14.09
